KDNN/DNN METAR and TAF weather

Enter ICAO airport designator
Station Type Date Time Source
KDNN METAR 2020/07/06 08:55 UTC NOAA

KDNN 060855Z AUTO 00000KT 10SM CLR 22/20 A2999 RMK AO2


Station Type Date Time Source
KDNN Decoded METAR 2020/07/06 08:55 UTC NOAA

Dalton, Dalton Municipal Airport, GA, United States (KDNN) 34-43-18N 084-52-09W
Jul 06, 2020 - 04:55 AM EDT / 2020.07.06 0855 UTC
Wind: Calm:0
Visibility: 10 mile(s):0
Sky conditions: clear
Temperature: 71 F (22 C)
Dew Point: 68 F (20 C)
Relative Humidity: 88%
Pressure (altimeter): 29.99 in. Hg (1015 hPa)
ob: KDNN 060855Z AUTO 00000KT 10SM CLR 22/20 A2999 RMK AO2
cycle: 9

Station Type Date Time Source
KDNN TAF UTC NOAA

Error!

Example: see airport list